createdAt,value
2019-04-26T00:00:08.840Z,0.00
2019-04-26T00:01:09.002Z,0.00
2019-04-26T00:02:09.121Z,0.00
2019-04-26T00:03:09.355Z,0.00
2019-04-26T00:04:09.289Z,0.00
2019-04-26T00:05:09.399Z,0.00
2019-04-26T00:06:08.980Z,0.00
2019-04-26T00:07:08.263Z,0.00
2019-04-26T00:08:09.254Z,0.00
2019-04-26T00:09:09.386Z,0.00
2019-04-26T00:10:08.373Z,0.00
2019-04-26T00:11:08.445Z,0.00
2019-04-26T00:12:08.520Z,0.00
2019-04-26T00:13:08.582Z,0.00
2019-04-26T00:14:08.574Z,0.00
2019-04-26T00:15:08.633Z,0.00
2019-04-26T00:16:08.663Z,0.00
2019-04-26T00:17:09.223Z,0.00
2019-04-26T00:18:08.770Z,0.00
2019-04-26T00:19:09.415Z,0.00
2019-04-26T00:20:08.854Z,0.00
2019-04-26T00:21:09.621Z,0.00
2019-04-26T00:22:08.972Z,0.00
2019-04-26T00:23:10.568Z,0.00
2019-04-26T00:24:09.089Z,0.00
2019-04-26T00:25:09.969Z,0.00
2019-04-26T00:26:09.159Z,0.00
2019-04-26T00:27:09.195Z,0.00
2019-04-26T00:28:10.247Z,0.00
2019-04-26T00:29:09.264Z,0.00
2019-04-26T00:30:09.313Z,0.00
2019-04-26T00:31:09.363Z,0.00
2019-04-26T00:32:09.415Z,0.00
2019-04-26T00:33:09.458Z,0.00
2019-04-26T00:34:09.536Z,0.00
2019-04-26T00:35:09.548Z,0.00
2019-04-26T00:36:09.622Z,0.00
2019-04-26T00:37:09.647Z,0.00
2019-04-26T00:38:09.694Z,0.00
2019-04-26T00:39:09.841Z,0.00
2019-04-26T00:40:09.793Z,0.00
2019-04-26T00:41:09.859Z,0.00
2019-04-26T00:42:09.920Z,0.00
2019-04-26T00:43:09.949Z,0.00
2019-04-26T00:44:09.973Z,0.00
2019-04-26T00:45:10.031Z,0.00
2019-04-26T00:46:10.073Z,0.00
2019-04-26T00:47:10.105Z,0.00
2019-04-26T00:48:10.176Z,0.00
2019-04-26T00:49:10.211Z,0.00
2019-04-26T00:50:10.250Z,0.00
2019-04-26T00:51:10.349Z,0.00
2019-04-26T00:52:10.338Z,0.00
2019-04-26T00:53:10.487Z,0.00
2019-04-26T00:54:10.459Z,0.00
2019-04-26T00:55:10.531Z,0.00
2019-04-26T00:56:10.544Z,0.00
2019-04-26T00:57:10.614Z,0.00
2019-04-26T00:58:10.689Z,0.00
2019-04-26T00:59:10.684Z,0.00
2019-04-26T01:00:10.739Z,0.00
2019-04-26T01:01:10.787Z,0.00
2019-04-26T01:02:10.842Z,0.00
2019-04-26T01:03:10.864Z,0.00
2019-04-26T01:04:10.915Z,0.00
2019-04-26T01:05:10.971Z,0.00
2019-04-26T01:06:11.057Z,0.00
2019-04-26T01:07:11.124Z,0.00
2019-04-26T01:08:11.098Z,0.00
2019-04-26T01:09:11.158Z,0.00
2019-04-26T01:10:11.178Z,0.00
2019-04-26T01:11:11.232Z,0.00
2019-04-26T01:12:11.288Z,0.00
2019-04-26T01:13:11.335Z,0.00
2019-04-26T01:14:11.375Z,0.00
2019-04-26T01:15:11.468Z,0.00
2019-04-26T01:16:11.481Z,0.00
2019-04-26T01:17:11.519Z,0.00
2019-04-26T01:18:11.566Z,0.00
2019-04-26T01:19:11.658Z,0.00
2019-04-26T01:20:11.665Z,0.00
2019-04-26T01:21:11.720Z,0.00
2019-04-26T01:22:11.733Z,0.00
2019-04-26T01:23:11.912Z,0.00
2019-04-26T01:24:11.858Z,0.00
2019-04-26T01:25:11.889Z,0.00
2019-04-26T01:26:11.986Z,0.00
2019-04-26T01:27:11.990Z,0.00
2019-04-26T01:28:12.034Z,0.00
2019-04-26T01:29:12.086Z,0.00
2019-04-26T01:30:12.122Z,0.00
2019-04-26T01:31:12.185Z,0.00
2019-04-26T01:32:12.218Z,0.00
2019-04-26T01:33:12.239Z,0.00
2019-04-26T01:34:12.310Z,0.00
2019-04-26T01:35:12.359Z,0.00
2019-04-26T01:36:13.642Z,0.00
2019-04-26T01:37:12.455Z,0.00
2019-04-26T01:38:12.485Z,0.00
2019-04-26T01:39:12.545Z,0.00
2019-04-26T01:40:12.878Z,0.00
2019-04-26T01:41:12.644Z,0.00
2019-04-26T01:42:12.700Z,0.00
2019-04-26T01:43:12.784Z,0.00
2019-04-26T01:44:12.826Z,0.00
2019-04-26T01:45:12.825Z,0.00
2019-04-26T01:46:12.913Z,0.00
2019-04-26T01:47:12.962Z,0.00
2019-04-26T01:48:12.973Z,0.00
2019-04-26T01:49:13.001Z,0.00
2019-04-26T01:50:13.053Z,0.00
2019-04-26T01:51:13.099Z,0.00
2019-04-26T01:52:13.242Z,0.00
2019-04-26T01:53:13.207Z,0.00
2019-04-26T02:00:13.516Z,0.00
2019-04-26T02:01:13.583Z,0.00
2019-04-26T02:02:13.608Z,0.00
2019-04-26T02:03:13.667Z,0.00
2019-04-26T02:04:13.740Z,0.00
2019-04-26T02:05:13.752Z,0.00
2019-04-26T02:06:24.916Z,0.00
2019-04-26T02:07:13.897Z,0.00
2019-04-26T02:08:13.875Z,0.00
2019-04-26T02:09:13.930Z,0.00
2019-04-26T02:10:14.006Z,0.00
2019-04-26T02:11:14.055Z,0.00
2019-04-26T02:12:14.100Z,0.00
2019-04-26T02:13:14.129Z,0.00
2019-04-26T02:14:14.203Z,0.00
2019-04-26T02:15:14.276Z,0.00
2019-04-26T02:16:14.257Z,0.00
2019-04-26T02:17:14.303Z,0.00
2019-04-26T02:18:14.371Z,0.00
2019-04-26T02:19:14.417Z,0.00
2019-04-26T02:20:14.473Z,0.00
2019-04-26T02:21:14.518Z,0.00
2019-04-26T02:22:14.530Z,0.00
2019-04-26T02:23:14.594Z,0.00
2019-04-26T02:24:14.630Z,0.00
2019-04-26T02:25:14.679Z,0.00
2019-04-26T02:26:14.740Z,0.00
2019-04-26T02:27:14.771Z,0.00
2019-04-26T02:28:14.795Z,0.00
2019-04-26T02:29:14.876Z,0.00
2019-04-26T02:30:14.921Z,0.00
2019-04-26T02:31:14.990Z,0.00
2019-04-26T02:32:15.008Z,0.00
2019-04-26T02:33:15.053Z,0.00
2019-04-26T02:34:15.114Z,0.00
2019-04-26T02:35:15.163Z,0.00
2019-04-26T02:36:15.191Z,0.00
2019-04-26T02:37:15.246Z,0.00
2019-04-26T02:38:15.321Z,0.00
2019-04-26T02:39:15.333Z,0.00
2019-04-26T02:40:15.394Z,0.00
2019-04-26T02:41:15.471Z,0.00
2019-04-26T02:42:15.497Z,0.00
2019-04-26T02:43:15.553Z,0.00
2019-04-26T02:44:15.599Z,0.00
2019-04-26T02:45:15.608Z,0.00
2019-04-26T02:46:15.654Z,0.00
2019-04-26T02:47:15.752Z,0.00
2019-04-26T02:48:15.757Z,0.00
2019-04-26T02:49:15.801Z,0.00
2019-04-26T02:50:15.851Z,0.00
2019-04-26T02:51:15.921Z,0.00
2019-04-26T02:52:15.972Z,0.00
2019-04-26T02:53:15.992Z,0.00
2019-04-26T02:54:16.056Z,0.00
2019-04-26T02:55:16.145Z,0.00
2019-04-26T02:56:16.115Z,0.00
2019-04-26T02:57:16.208Z,0.00
2019-04-26T02:58:16.386Z,0.00
2019-04-26T02:59:16.301Z,0.00
2019-04-26T03:00:16.297Z,0.00
2019-04-26T03:01:16.331Z,0.00
2019-04-26T03:02:16.395Z,0.00
2019-04-26T03:03:16.480Z,0.00
2019-04-26T03:04:16.532Z,0.00
2019-04-26T03:05:16.506Z,0.00
2019-04-26T03:06:16.567Z,0.00
2019-04-26T03:07:16.635Z,0.00
2019-04-26T03:08:16.826Z,0.00
2019-04-26T03:09:16.716Z,0.00
2019-04-26T03:10:16.778Z,0.00
2019-04-26T03:11:17.692Z,0.00
2019-04-26T03:12:16.891Z,0.00
2019-04-26T03:13:17.227Z,0.00
2019-04-26T03:14:17.115Z,0.00
2019-04-26T03:15:16.991Z,0.00
2019-04-26T03:16:17.050Z,0.00
2019-04-26T03:17:17.097Z,0.00
2019-04-26T03:18:17.149Z,0.00
2019-04-26T03:19:17.171Z,0.00
2019-04-26T03:20:17.230Z,0.00
2019-04-26T03:21:17.310Z,0.00
2019-04-26T03:22:17.309Z,0.00
2019-04-26T03:23:17.362Z,0.00
2019-04-26T03:24:17.444Z,0.00
2019-04-26T03:25:17.462Z,0.00
2019-04-26T03:26:17.513Z,0.00
2019-04-26T03:27:17.614Z,0.00
2019-04-26T03:28:17.599Z,0.00
2019-04-26T03:29:17.631Z,0.00
2019-04-26T03:30:21.480Z,0.00
2019-04-26T03:31:17.982Z,0.00
2019-04-26T03:32:17.773Z,0.00
2019-04-26T03:33:17.927Z,0.00
2019-04-26T03:34:18.214Z,0.00
2019-04-26T03:35:17.949Z,0.00
2019-04-26T03:36:17.956Z,0.00
2019-04-26T03:37:21.040Z,0.00
2019-04-26T03:38:18.060Z,0.00
2019-04-26T03:39:18.156Z,0.00
2019-04-26T03:40:18.147Z,0.00
2019-04-26T03:41:18.189Z,0.00
2019-04-26T03:42:18.282Z,0.00
2019-04-26T03:43:18.413Z,0.00
2019-04-26T03:44:18.324Z,0.00
2019-04-26T03:45:18.357Z,0.00
2019-04-26T03:46:18.406Z,0.00
2019-04-26T03:47:18.461Z,0.00
2019-04-26T03:48:18.529Z,0.00
2019-04-26T03:49:18.575Z,0.00
2019-04-26T03:50:18.717Z,0.00
2019-04-26T03:51:18.656Z,0.00
2019-04-26T03:52:18.698Z,0.00
2019-04-26T03:53:18.720Z,0.00
2019-04-26T03:54:18.796Z,0.00
2019-04-26T03:55:18.847Z,0.00
2019-04-26T03:56:18.983Z,0.00
2019-04-26T03:57:18.896Z,0.00
2019-04-26T03:58:18.976Z,0.00
2019-04-26T03:59:19.025Z,0.00
2019-04-26T04:00:19.085Z,0.00
2019-04-26T04:01:19.083Z,0.00
2019-04-26T04:02:19.138Z,0.00
2019-04-26T04:03:19.307Z,0.00
2019-04-26T04:04:19.398Z,0.00
2019-04-26T04:05:19.350Z,0.00
2019-04-26T04:06:19.348Z,0.00
2019-04-26T04:07:35.691Z,0.00
2019-04-26T04:08:19.607Z,0.00
2019-04-26T04:09:19.462Z,0.00
2019-04-26T04:10:19.936Z,0.00
2019-04-26T04:11:19.560Z,0.00
2019-04-26T04:12:19.714Z,0.00
2019-04-26T04:13:19.661Z,0.00
2019-04-26T04:14:19.866Z,0.00
2019-04-26T04:15:19.923Z,0.00
2019-04-26T04:16:19.903Z,0.00
2019-04-26T04:17:19.847Z,0.00
2019-04-26T04:18:19.950Z,0.00
2019-04-26T04:19:19.943Z,0.00
2019-04-26T04:20:20.029Z,0.00
2019-04-26T04:21:20.124Z,0.00
2019-04-26T04:22:20.210Z,0.00
2019-04-26T04:23:20.186Z,0.00
2019-04-26T04:24:20.229Z,0.00
2019-04-26T04:25:20.273Z,0.00
2019-04-26T04:26:20.301Z,0.00
2019-04-26T04:27:20.496Z,0.00
2019-04-26T04:28:20.483Z,0.00
2019-04-26T04:29:20.397Z,0.00
2019-04-26T04:30:20.512Z,0.00
2019-04-26T04:31:20.517Z,0.00
2019-04-26T04:32:20.508Z,0.00
2019-04-26T04:33:20.734Z,0.00
2019-04-26T04:34:20.754Z,0.00
2019-04-26T04:35:20.726Z,0.00
2019-04-26T04:36:20.787Z,0.00
2019-04-26T04:37:20.803Z,0.00
2019-04-26T04:38:20.852Z,0.00
2019-04-26T04:39:20.993Z,0.00
2019-04-26T04:40:21.053Z,0.00
2019-04-26T04:41:21.009Z,0.00
2019-04-26T04:42:21.013Z,0.00
2019-04-26T04:43:21.342Z,0.00
2019-04-26T04:44:21.095Z,0.00
2019-04-26T04:45:21.254Z,0.00
2019-04-26T04:46:21.449Z,0.00
2019-04-26T04:47:25.066Z,0.00
2019-04-26T04:48:21.289Z,0.00
2019-04-26T04:49:21.335Z,0.00
2019-04-26T04:50:21.349Z,0.00
2019-04-26T04:51:21.395Z,0.00
2019-04-26T04:52:21.527Z,0.00
2019-04-26T04:53:21.572Z,0.00
2019-04-26T04:54:21.529Z,0.00
2019-04-26T04:55:21.561Z,0.00
2019-04-26T04:56:21.635Z,0.00
2019-04-26T04:57:21.838Z,0.00
2019-04-26T04:58:21.713Z,0.00
2019-04-26T04:59:21.743Z,0.00
2019-04-26T05:00:21.792Z,0.00
2019-04-26T05:01:21.853Z,0.00
2019-04-26T05:02:21.894Z,0.00
2019-04-26T05:03:21.931Z,0.00
2019-04-26T05:04:21.981Z,0.00
2019-04-26T05:05:22.095Z,0.00
2019-04-26T05:06:22.069Z,0.00
2019-04-26T05:07:22.124Z,0.00
2019-04-26T05:08:22.166Z,0.00
2019-04-26T05:09:22.411Z,0.00
2019-04-26T05:10:22.253Z,0.00
2019-04-26T05:11:22.305Z,0.00
2019-04-26T05:12:22.346Z,0.00
2019-04-26T05:13:22.398Z,0.00
2019-04-26T05:14:22.447Z,0.00
2019-04-26T05:15:22.492Z,0.00
2019-04-26T05:16:22.542Z,0.00
2019-04-26T05:17:22.583Z,0.00
2019-04-26T05:18:22.617Z,0.00
2019-04-26T05:19:22.669Z,0.00
2019-04-26T05:20:22.697Z,0.00
2019-04-26T05:21:22.781Z,0.00
2019-04-26T05:22:22.817Z,0.00
2019-04-26T05:23:22.845Z,0.00
2019-04-26T05:24:22.891Z,0.00
2019-04-26T05:25:22.933Z,0.00
2019-04-26T05:26:22.976Z,0.00
2019-04-26T05:27:23.058Z,0.00
2019-04-26T05:28:23.275Z,0.00
2019-04-26T05:29:23.106Z,0.00
2019-04-26T05:30:23.185Z,0.00
2019-04-26T05:31:23.222Z,0.00
2019-04-26T05:32:23.253Z,0.00
2019-04-26T05:33:23.303Z,0.00
2019-04-26T05:34:23.358Z,0.00
2019-04-26T05:35:23.437Z,0.00
2019-04-26T05:36:23.441Z,0.00
2019-04-26T05:37:23.474Z,0.00
2019-04-26T05:38:23.575Z,0.00
2019-04-26T05:39:23.596Z,0.00
2019-04-26T05:40:23.623Z,0.00
2019-04-26T05:41:23.651Z,0.00
2019-04-26T05:42:23.710Z,0.00
2019-04-26T05:43:23.757Z,0.00
2019-04-26T05:44:23.792Z,0.00
2019-04-26T05:45:23.981Z,0.00
2019-04-26T05:46:23.901Z,0.00
2019-04-26T05:47:23.968Z,0.00
2019-04-26T05:48:23.986Z,0.00
2019-04-26T05:49:24.026Z,0.00
2019-04-26T05:50:24.055Z,0.00
2019-04-26T05:51:24.126Z,0.00
2019-04-26T05:52:24.178Z,0.00
2019-04-26T05:53:24.220Z,0.00
2019-04-26T05:54:24.477Z,0.00
2019-04-26T05:55:24.279Z,0.00
2019-04-26T05:56:24.361Z,0.00
2019-04-26T05:57:24.386Z,0.00
2019-04-26T05:58:24.435Z,0.00
2019-04-26T05:59:24.543Z,0.00
2019-04-26T06:00:24.531Z,0.00
2019-04-26T06:01:24.617Z,0.00
2019-04-26T06:02:24.612Z,0.00
2019-04-26T06:03:24.732Z,0.00
2019-04-26T06:04:24.702Z,0.00
2019-04-26T06:05:24.771Z,0.00
2019-04-26T06:06:24.787Z,0.00
2019-04-26T06:07:24.845Z,0.00
2019-04-26T06:08:31.033Z,0.00
2019-04-26T06:09:24.970Z,0.00
2019-04-26T06:10:24.992Z,0.00
2019-04-26T06:11:25.055Z,0.00
2019-04-26T06:12:25.094Z,0.00
2019-04-26T06:13:25.341Z,0.00
2019-04-26T06:14:25.197Z,0.00
2019-04-26T06:15:25.214Z,0.00
2019-04-26T06:16:25.292Z,0.00
2019-04-26T06:17:25.302Z,0.00
2019-04-26T06:18:25.363Z,0.00
2019-04-26T06:19:25.417Z,0.00
2019-04-26T06:20:25.442Z,0.00
2019-04-26T06:21:25.484Z,0.00
2019-04-26T06:22:25.537Z,0.00
2019-04-26T06:23:25.651Z,0.00
2019-04-26T06:24:25.662Z,0.00
2019-04-26T06:25:25.681Z,0.00
2019-04-26T06:26:25.728Z,0.00
2019-04-26T06:27:25.779Z,0.00
2019-04-26T06:28:25.826Z,0.00
2019-04-26T06:29:25.898Z,0.00
2019-04-26T06:30:25.925Z,0.00
2019-04-26T06:31:25.951Z,0.00
2019-04-26T06:32:26.065Z,0.00
2019-04-26T06:33:26.078Z,0.00
2019-04-26T06:34:26.127Z,0.00
2019-04-26T06:35:26.133Z,0.00
2019-04-26T06:36:26.172Z,0.00
2019-04-26T06:37:26.223Z,0.00
2019-04-26T06:38:26.294Z,0.00
2019-04-26T06:39:26.305Z,0.00
2019-04-26T06:40:26.374Z,0.00
2019-04-26T06:41:26.560Z,0.00
2019-04-26T06:42:26.448Z,0.00
2019-04-26T06:43:26.590Z,0.00
2019-04-26T06:44:26.604Z,0.00
2019-04-26T06:45:26.604Z,0.00
2019-04-26T06:46:26.635Z,0.00
2019-04-26T06:47:26.703Z,0.00
2019-04-26T06:48:26.761Z,0.00
2019-04-26T06:49:26.782Z,0.00
2019-04-26T06:50:26.814Z,0.00
2019-04-26T06:51:26.871Z,0.00
2019-04-26T06:52:26.935Z,0.00
2019-04-26T06:53:26.974Z,0.00
2019-04-26T06:54:27.005Z,0.00
2019-04-26T06:55:27.028Z,0.00
2019-04-26T06:56:27.136Z,0.00
2019-04-26T06:57:27.195Z,0.00
2019-04-26T06:58:27.199Z,0.00
2019-04-26T06:59:36.180Z,0.00
2019-04-26T07:00:27.333Z,0.00
2019-04-26T07:01:27.318Z,0.00
2019-04-26T07:02:27.501Z,0.00
2019-04-26T07:03:27.409Z,0.00
2019-04-26T07:04:27.447Z,0.00
2019-04-26T07:05:27.524Z,0.00
2019-04-26T07:06:34.740Z,0.00
2019-04-26T07:07:27.599Z,0.00
2019-04-26T07:08:27.646Z,0.00
2019-04-26T07:09:27.687Z,0.00
2019-04-26T07:10:27.738Z,0.00
2019-04-26T07:11:27.812Z,0.00
2019-04-26T07:12:27.797Z,0.00
2019-04-26T07:13:28.041Z,0.00
2019-04-26T07:14:27.906Z,0.00
2019-04-26T07:15:29.016Z,0.00
2019-04-26T07:16:28.024Z,0.00
2019-04-26T07:17:28.037Z,0.00
2019-04-26T07:18:28.114Z,0.00
2019-04-26T07:19:28.159Z,0.00
2019-04-26T07:20:28.200Z,0.00
2019-04-26T07:21:28.250Z,0.00
2019-04-26T07:22:35.144Z,0.00
2019-04-26T07:23:28.337Z,0.00
2019-04-26T07:24:28.363Z,0.00
2019-04-26T07:25:28.431Z,0.00
2019-04-26T07:26:28.468Z,0.00
2019-04-26T07:27:28.510Z,0.00
2019-04-26T07:28:28.683Z,0.00
2019-04-26T07:29:28.612Z,0.00
2019-04-26T07:30:28.803Z,0.00
2019-04-26T07:31:28.706Z,0.00
2019-04-26T07:32:28.797Z,0.00
2019-04-26T07:33:28.784Z,0.00
2019-04-26T07:34:28.832Z,0.00
2019-04-26T07:35:28.856Z,0.00
2019-04-26T07:36:28.933Z,0.00
2019-04-26T07:37:28.948Z,0.00
2019-04-26T07:38:29.032Z,0.00
2019-04-26T07:39:29.078Z,0.00
2019-04-26T07:40:29.100Z,0.00
2019-04-26T07:41:29.139Z,0.00
2019-04-26T07:42:29.192Z,0.00
2019-04-26T07:43:29.257Z,0.00
2019-04-26T07:44:29.309Z,0.00
2019-04-26T07:45:29.386Z,0.00
2019-04-26T07:46:29.385Z,0.00
2019-04-26T07:47:29.420Z,0.00
2019-04-26T07:48:29.475Z,0.00
2019-04-26T07:49:29.524Z,0.00
2019-04-26T07:50:29.607Z,0.00
2019-04-26T07:51:29.602Z,0.00
2019-04-26T07:52:29.647Z,0.00
2019-04-26T07:53:29.704Z,0.00
2019-04-26T07:54:29.794Z,0.00
2019-04-26T07:55:29.792Z,0.00
2019-04-26T07:56:29.809Z,0.00
2019-04-26T07:57:29.868Z,0.00
2019-04-26T07:58:29.936Z,0.00
2019-04-26T07:59:29.989Z,0.00
2019-04-26T08:00:30.019Z,0.00
2019-04-26T08:01:30.067Z,0.00
2019-04-26T08:02:30.105Z,0.00
2019-04-26T08:03:30.144Z,0.00
2019-04-26T08:04:30.205Z,0.00
2019-04-26T08:05:30.250Z,0.00
2019-04-26T08:06:30.297Z,0.00
2019-04-26T08:07:30.329Z,0.00
2019-04-26T08:08:30.426Z,0.00
2019-04-26T08:09:30.478Z,0.00
2019-04-26T08:10:30.469Z,0.00
2019-04-26T08:11:30.497Z,0.00
2019-04-26T08:12:30.554Z,0.00
2019-04-26T08:13:30.616Z,0.00
2019-04-26T08:14:30.628Z,0.00
2019-04-26T08:15:30.713Z,0.00
2019-04-26T08:16:30.732Z,0.00
2019-04-26T08:17:30.773Z,0.00
2019-04-26T08:18:30.840Z,0.00
2019-04-26T08:19:30.869Z,0.00
2019-04-26T08:20:31.924Z,0.00
2019-04-26T08:21:32.019Z,0.00
2019-04-26T08:22:32.460Z,0.00
2019-04-26T08:23:39.539Z,0.00
2019-04-26T08:24:31.110Z,0.00
2019-04-26T08:25:31.139Z,0.00
2019-04-26T08:26:31.196Z,0.00
2019-04-26T08:27:31.232Z,0.00
2019-04-26T08:28:31.298Z,0.00
2019-04-26T08:29:33.302Z,0.00
2019-04-26T08:30:31.372Z,0.00
2019-04-26T08:31:31.408Z,0.00
2019-04-26T08:32:32.029Z,0.00
2019-04-26T08:33:31.510Z,0.00
2019-04-26T08:34:33.750Z,0.00
2019-04-26T08:35:31.603Z,0.00
2019-04-26T08:36:31.654Z,0.00
2019-04-26T08:37:32.241Z,0.00
2019-04-26T08:38:31.753Z,0.00
2019-04-26T08:39:44.516Z,0.00
2019-04-26T08:40:31.814Z,0.00
2019-04-26T08:41:35.172Z,0.00
2019-04-26T08:42:31.944Z,0.00
2019-04-26T08:43:32.008Z,0.00
2019-04-26T08:44:34.512Z,0.00
2019-04-26T08:45:32.080Z,0.00
2019-04-26T08:46:35.812Z,0.00
2019-04-26T08:47:32.165Z,0.00
2019-04-26T08:48:32.213Z,0.00
2019-04-26T08:49:35.114Z,0.00
2019-04-26T08:50:32.379Z,0.00
2019-04-26T08:51:32.332Z,0.00
2019-04-26T08:52:32.406Z,0.00
2019-04-26T08:53:32.430Z,0.00
2019-04-26T08:54:32.681Z,0.00
2019-04-26T08:55:32.523Z,0.00
2019-04-26T08:56:32.583Z,0.00
2019-04-26T08:57:32.612Z,0.00
2019-04-26T08:58:32.698Z,0.00
2019-04-26T08:59:32.718Z,0.00
2019-04-26T09:00:32.794Z,0.00
2019-04-26T09:01:32.814Z,4.00
2019-04-26T09:02:32.862Z,0.00
2019-04-26T09:03:32.882Z,4.00
2019-04-26T09:04:32.968Z,4.00
2019-04-26T09:05:32.970Z,4.00
2019-04-26T09:06:33.028Z,4.00
2019-04-26T09:07:33.077Z,8.00
2019-04-26T09:08:33.151Z,4.00
2019-04-26T09:09:33.169Z,8.00
2019-04-26T09:10:33.226Z,12.00
2019-04-26T09:11:34.033Z,20.00
2019-04-26T09:12:33.327Z,24.00
2019-04-26T09:13:33.357Z,32.00
2019-04-26T09:14:33.398Z,32.00
2019-04-26T09:15:33.484Z,36.00
2019-04-26T09:16:33.503Z,44.00
2019-04-26T09:17:33.819Z,52.00
2019-04-26T09:18:42.858Z,64.00
2019-04-26T09:19:33.644Z,80.00
2019-04-26T09:20:33.669Z,92.00
2019-04-26T09:21:33.765Z,100.00
2019-04-26T09:22:33.788Z,108.00
2019-04-26T09:23:39.838Z,116.00
2019-04-26T09:24:33.858Z,124.00
2019-04-26T09:25:37.072Z,132.00
2019-04-26T09:26:33.963Z,140.00
2019-04-26T09:27:34.003Z,152.00
2019-04-26T09:28:34.066Z,168.00
2019-04-26T09:29:34.127Z,188.00
2019-04-26T09:30:34.816Z,224.00
2019-04-26T09:31:34.226Z,272.00
2019-04-26T09:32:34.247Z,344.00
2019-04-26T09:33:36.063Z,428.00
2019-04-26T09:34:34.305Z,492.00
2019-04-26T09:35:34.372Z,516.00
2019-04-26T09:36:34.419Z,544.00
2019-04-26T09:37:34.470Z,588.00
2019-04-26T09:38:34.515Z,648.00
2019-04-26T09:39:34.557Z,684.00
2019-04-26T09:40:34.618Z,708.00
2019-04-26T09:41:34.647Z,760.00
2019-04-26T09:42:39.391Z,844.00
2019-04-26T09:43:34.741Z,956.00
2019-04-26T09:44:37.643Z,1044.00
2019-04-26T09:45:34.852Z,1124.00
2019-04-26T09:46:34.891Z,1196.00
2019-04-26T09:47:34.918Z,1332.00
2019-04-26T09:48:36.713Z,1480.00
2019-04-26T09:49:37.290Z,1588.00
2019-04-26T09:50:35.051Z,1644.00
2019-04-26T09:51:39.094Z,1668.00
2019-04-26T09:52:35.163Z,1704.00
2019-04-26T09:53:35.205Z,1768.00
2019-04-26T09:54:35.243Z,1868.00
2019-04-26T09:55:35.949Z,1924.00
2019-04-26T09:56:35.357Z,1900.00
2019-04-26T09:57:35.396Z,1848.00
2019-04-26T09:58:35.431Z,1824.00
2019-04-26T09:59:36.245Z,1780.00
2019-04-26T10:00:35.515Z,1732.00
2019-04-26T10:01:35.588Z,1760.00
2019-04-26T10:02:35.621Z,1892.00
2019-04-26T10:03:35.678Z,2044.00
2019-04-26T10:04:35.725Z,2160.00
2019-04-26T10:05:35.771Z,2384.00
2019-04-26T10:06:35.823Z,2868.00
2019-04-26T10:07:37.484Z,3684.00
2019-04-26T10:08:35.897Z,4716.00
2019-04-26T10:09:35.963Z,5616.00
2019-04-26T10:10:36.468Z,6268.00
2019-04-26T10:11:39.597Z,6664.00
2019-04-26T10:12:36.093Z,6428.00
2019-04-26T10:13:36.120Z,5908.00
2019-04-26T10:14:36.221Z,5200.00
2019-04-26T10:15:38.937Z,5100.00
2019-04-26T10:16:37.665Z,5584.00
2019-04-26T10:17:36.327Z,6268.00
2019-04-26T10:18:36.374Z,7492.00
2019-04-26T10:19:36.414Z,8056.00
2019-04-26T10:20:36.465Z,7916.00
2019-04-26T10:21:36.525Z,8172.00
2019-04-26T10:22:36.554Z,8720.00
2019-04-26T10:23:36.589Z,9284.00
2019-04-26T10:24:36.649Z,10384.00
2019-04-26T10:25:36.695Z,11464.00
2019-04-26T10:26:36.758Z,11796.00
2019-04-26T10:27:40.789Z,10916.00
2019-04-26T10:28:36.815Z,15168.00
2019-04-26T10:29:36.881Z,18528.00
2019-04-26T10:30:38.285Z,19136.00
2019-04-26T10:31:36.963Z,19744.00
2019-04-26T10:32:37.032Z,20032.00
2019-04-26T10:33:37.877Z,18528.00
2019-04-26T10:34:37.113Z,21472.00
2019-04-26T10:35:37.160Z,21760.00
2019-04-26T10:36:37.206Z,24352.00
2019-04-26T10:37:39.636Z,23968.00
2019-04-26T10:38:37.297Z,25920.00
2019-04-26T10:39:37.345Z,19200.00
2019-04-26T10:40:37.405Z,16928.00
2019-04-26T10:41:37.456Z,14148.00
2019-04-26T10:42:37.499Z,23104.00
2019-04-26T10:43:37.546Z,13860.00
2019-04-26T10:44:39.957Z,14088.00
2019-04-26T10:45:37.629Z,14160.00
2019-04-26T10:46:37.707Z,13516.00
2019-04-26T10:47:38.380Z,13444.00
2019-04-26T10:48:37.773Z,13216.00
2019-04-26T10:49:37.827Z,13944.00
2019-04-26T10:50:37.872Z,14168.00
2019-04-26T10:51:38.686Z,14708.00
2019-04-26T10:52:37.982Z,14764.00
2019-04-26T10:53:38.034Z,14212.00
2019-04-26T10:54:41.022Z,13488.00
2019-04-26T10:55:38.129Z,13100.00
2019-04-26T10:56:38.168Z,12776.00
2019-04-26T10:57:38.258Z,12668.00
2019-04-26T10:58:38.270Z,12716.00
2019-04-26T10:59:39.919Z,12420.00
2019-04-26T11:00:38.411Z,12660.00
2019-04-26T11:01:38.409Z,13812.00
2019-04-26T11:02:38.473Z,13020.00
2019-04-26T11:03:38.498Z,12476.00
2019-04-26T11:04:41.433Z,12052.00
2019-04-26T11:05:38.610Z,12216.00
2019-04-26T11:06:38.676Z,14080.00
2019-04-26T11:07:38.688Z,16592.00
2019-04-26T11:08:38.753Z,18080.00
2019-04-26T11:09:38.790Z,17984.00
2019-04-26T11:10:48.461Z,17568.00
2019-04-26T11:11:38.939Z,14176.00
2019-04-26T11:12:39.597Z,14288.00
2019-04-26T11:13:38.970Z,15856.00
2019-04-26T11:14:39.039Z,17184.00
2019-04-26T11:15:39.113Z,17344.00
2019-04-26T11:16:41.225Z,17248.00
2019-04-26T11:17:39.196Z,16744.00
2019-04-26T11:18:39.241Z,15976.00
2019-04-26T11:19:39.296Z,15708.00
2019-04-26T11:20:41.438Z,15548.00
2019-04-26T11:21:39.393Z,14628.00
2019-04-26T11:22:39.422Z,13384.00
2019-04-26T11:23:41.212Z,12636.00
2019-04-26T11:24:39.553Z,12620.00
2019-04-26T11:25:39.601Z,13188.00
2019-04-26T11:26:39.619Z,14208.00
2019-04-26T11:27:40.218Z,16884.00
2019-04-26T11:28:41.911Z,18624.00
2019-04-26T11:29:39.782Z,17472.00
2019-04-26T11:30:39.823Z,16964.00
2019-04-26T11:31:39.882Z,17204.00
2019-04-26T11:32:39.924Z,17536.00
2019-04-26T11:33:44.875Z,16748.00
2019-04-26T11:34:42.752Z,14816.00
2019-04-26T11:35:40.067Z,14016.00
2019-04-26T11:36:41.703Z,13552.00
2019-04-26T11:37:40.150Z,14532.00
2019-04-26T11:38:40.216Z,15172.00
2019-04-26T11:39:41.940Z,23488.00
2019-04-26T11:40:40.315Z,19808.00
2019-04-26T11:41:40.367Z,17504.00
2019-04-26T11:42:41.954Z,16020.00
2019-04-26T11:43:40.499Z,17472.00
2019-04-26T11:44:40.504Z,30048.00
2019-04-26T11:45:40.528Z,37120.00
2019-04-26T11:46:44.826Z,41248.00
2019-04-26T11:47:54.292Z,50912.00
2019-04-26T11:48:40.686Z,50144.00
2019-04-26T11:49:41.592Z,38848.00
2019-04-26T11:50:40.834Z,26496.00
2019-04-26T11:51:40.893Z,33984.00
2019-04-26T11:52:40.903Z,30592.00
2019-04-26T11:53:44.733Z,40576.00
2019-04-26T11:54:40.993Z,47424.00
2019-04-26T11:55:41.056Z,62816.00
2019-04-26T11:56:41.097Z,60032.00
2019-04-26T11:57:43.667Z,64480.00
2019-04-26T11:58:41.191Z,58112.00
2019-04-26T11:59:41.233Z,39392.00
2019-04-26T12:00:41.279Z,50976.00
2019-04-26T12:01:42.017Z,42080.00
2019-04-26T12:02:41.414Z,69792.00
2019-04-26T12:03:41.441Z,41184.00
2019-04-26T12:04:41.508Z,39904.00
2019-04-26T12:05:41.558Z,39168.00
2019-04-26T12:06:41.652Z,51264.00
2019-04-26T12:07:41.645Z,37536.00
2019-04-26T12:08:41.699Z,37280.00
2019-04-26T12:09:41.751Z,39648.00
2019-04-26T12:10:44.399Z,31232.00
2019-04-26T12:11:49.322Z,30368.00
2019-04-26T12:12:43.140Z,29440.00
2019-04-26T12:13:41.948Z,28960.00
2019-04-26T12:14:42.004Z,28672.00
2019-04-26T12:15:43.778Z,28832.00
2019-04-26T12:16:49.246Z,26720.00
2019-04-26T12:17:42.335Z,25664.00
2019-04-26T12:18:44.167Z,25984.00
2019-04-26T12:19:42.255Z,28352.00
2019-04-26T12:20:42.325Z,28128.00
2019-04-26T12:21:42.381Z,30112.00
2019-04-26T12:22:43.268Z,24960.00
2019-04-26T12:23:42.476Z,23712.00
2019-04-26T12:24:42.520Z,23648.00
2019-04-26T12:25:43.673Z,23648.00
2019-04-26T12:26:46.071Z,23680.00
2019-04-26T12:27:42.749Z,24096.00
2019-04-26T12:28:42.741Z,25856.00
2019-04-26T12:29:44.291Z,29824.00
2019-04-26T12:30:42.841Z,34336.00
2019-04-26T12:31:42.879Z,40192.00
2019-04-26T12:32:42.936Z,68544.00
2019-04-26T12:33:43.786Z,50464.00
2019-04-26T12:34:43.049Z,56032.00
2019-04-26T12:35:43.099Z,53504.00
2019-04-26T12:36:43.144Z,63008.00
2019-04-26T12:37:43.197Z,43872.00
2019-04-26T12:38:43.266Z,32736.00
2019-04-26T12:39:43.301Z,31200.00
2019-04-26T12:40:46.256Z,30944.00
2019-04-26T12:41:43.413Z,34432.00
2019-04-26T12:42:47.307Z,30784.00
2019-04-26T12:43:43.523Z,34528.00
2019-04-26T12:44:43.612Z,53536.00
2019-04-26T12:45:43.590Z,28352.00
2019-04-26T12:46:43.694Z,27872.00
2019-04-26T12:47:43.707Z,27328.00
2019-04-26T12:48:46.030Z,29280.00
2019-04-26T12:49:43.833Z,35328.00
2019-04-26T12:50:43.870Z,60448.00
2019-04-26T12:51:47.311Z,58528.00
2019-04-26T12:52:43.983Z,56864.00
2019-04-26T12:53:44.030Z,51584.00
2019-04-26T12:54:44.524Z,52672.00
2019-04-26T12:55:44.137Z,51680.00
2019-04-26T12:56:44.216Z,37824.00
2019-04-26T12:57:44.260Z,59488.00